Flight Track Log - Related Links

Times and Time Zones

All times are in EDT time to prevent confusion due to time zone crossing. See the SKW5535 flight status page for this flight to view local times or setup timezone preferences in your user account.

Time Position Orientation Groundspeed Altitude Reporting Facility
EDT Latitude Longitude Course Direction KTS MPH feet Rate Location/Type
Wed 02:58:05 PM 46.9083 -114.1778 234° Southwest 218 251 6,600  Level Salt Lake Center
Wed 02:59:07 PM 46.8539 -114.1175 143° Southeast 238 274 9,100 2,274 Climbing Salt Lake Center
Wed 03:00:09 PM 46.8094 -114.0403 130° Southeast 251 289 11,300 1,839 Climbing Salt Lake Center
Wed 03:01:11 PM 46.7544 -113.9467 131° Southeast 283 326 12,900 1,403 Climbing Salt Lake Center
Wed 03:02:13 PM 46.6950 -113.8481 131° Southeast 322 371 14,200 1,403 Climbing Salt Lake Center
Wed 03:03:15 PM 46.6261 -113.7344 131° Southeast 346 398 15,800 1,500 Climbing Salt Lake Center
Wed 03:04:17 PM 46.5586 -113.6233 131° Southeast 365 420 17,300 1,403 Climbing Salt Lake Center
Wed 03:05:19 PM 46.4908 -113.5119 131° Southeast 369 425 18,700 1,306 Climbing Salt Lake Center
Wed 03:06:21 PM 46.4172 -113.3875 131° Southeast 378 435 20,000 1,161 Climbing Salt Lake Center
Wed 03:07:23 PM 46.3436 -113.2714 133° Southeast 390 449 21,100 1,065 Climbing Salt Lake Center
Wed 03:08:25 PM 46.2728 -113.1578 132° Southeast 397 457 22,200 960 Climbing Salt Lake Center
Wed 03:09:28 PM 46.1981 -113.0347 131° Southeast 406 467 23,100 1,008 Climbing Salt Lake Center
Wed 03:10:30 PM 46.1058 -112.8878 132° Southeast 411 473 24,300 1,016 Climbing Salt Lake Center
Wed 03:11:32 PM 46.0297 -112.7619 131° Southeast 416 479 25,200 823 Climbing Salt Lake Center
Wed 03:12:34 PM 45.9506 -112.6356 132° Southeast 426 490 26,000 726 Climbing Salt Lake Center
Wed 03:13:36 PM 45.8700 -112.5081 132° Southeast 430 495 26,700 726 Climbing Salt Lake Center
Wed 03:14:38 PM 45.7892 -112.3786 132° Southeast 436 502 27,500 629 Climbing Salt Lake Center
Wed 03:15:40 PM 45.7081 -112.2514 132° Southeast 436 502 28,000 629 Climbing Salt Lake Center
Wed 03:16:42 PM 45.6081 -112.0947 132° Southeast 445 512 28,800 726 Climbing Salt Lake Center
Wed 03:17:44 PM 45.5256 -111.9639 132° Southeast 447 514 29,500 726 Climbing Salt Lake Center
Wed 03:18:46 PM 45.4431 -111.8356 132° Southeast 444 511 30,300 726 Climbing Salt Lake Center
Wed 03:19:48 PM 45.3606 -111.7069 132° Southeast 442 509 31,000 677 Climbing Salt Lake Center
Wed 03:20:50 PM 45.2789 -111.5803 132° Southeast 440 506 31,700 677 Climbing Salt Lake Center
Wed 03:21:52 PM 45.1800 -111.4281 133° Southeast 439 505 32,400 629 Climbing Salt Lake Center
Wed 03:22:54 PM 45.1042 -111.3119 133° Southeast 437 503 33,000 290 Climbing Salt Lake Center
Wed 03:23:56 PM 45.0094 -111.1689 133° Southeast 442 509 33,000 97 Level Salt Lake Center
Wed 03:24:58 PM 44.9264 -111.0419 133° Southeast 453 521 33,200 387 Climbing Salt Lake Center
Wed 03:26:00 PM 44.8283 -110.8958 133° Southeast 456 525 33,800 532 Climbing Salt Lake Center
Wed 03:27:02 PM 44.7458 -110.7711 133° Southeast 452 520 34,300 480 Climbing Salt Lake Center
Wed 03:28:05 PM 44.6672 -110.6436 131° Southeast 450 518 34,800 336 Climbing Salt Lake Center
Wed 03:29:07 PM 44.5914 -110.4806 123° Southeast 446 513 35,000 97 Climbing Salt Lake Center
Wed 03:30:09 PM 44.5253 -110.3383 123° Southeast 452 520 35,000  Level Salt Lake Center
Wed 03:31:11 PM 44.4464 -110.1719 124° Southeast 456 525 35,000  Level Salt Lake Center
Wed 03:32:13 PM 44.3797 -110.0272 123° Southeast 460 529 35,000  Level Salt Lake Center
Wed 03:33:15 PM 44.3036 -109.8572 122° Southeast 462 532 35,000  Level Salt Lake Center
Wed 03:34:17 PM 44.2397 -109.7108 121° Southeast 462 532 35,000  Level Salt Lake Center
Wed 03:35:19 PM 44.1628 -109.5458 123° Southeast 457 526 35,000  Level Salt Lake Center
Wed 03:36:21 PM 44.0986 -109.3914 120° Southeast 455 524 35,000  Level Salt Lake Center
Wed 03:37:23 PM 44.0328 -109.2422 122° Southeast 455 524 35,000  Level Salt Lake Center
Wed 03:38:25 PM 43.9653 -109.0936 122° Southeast 457 526 35,000  Level Salt Lake Center
Wed 03:39:27 PM 43.8886 -108.9531 127° Southeast 458 527 35,000  Level Salt Lake Center
Wed 03:40:29 PM 43.8103 -108.8136 128° Southeast 460 529 35,000  Level Salt Lake Center
Wed 03:41:31 PM 43.6994 -108.6694 137° Southeast 460 529 35,000  Level Salt Lake Center
Wed 03:42:33 PM 43.6011 -108.5586 141° Southeast 459 528 35,000  Level Salt Lake Center
Wed 03:43:35 PM 43.5022 -108.4461 140° Southeast 462 532 35,000  Level Salt Lake Center
Wed 03:44:37 PM 43.4031 -108.3367 141° Southeast 460 529 35,000  Level Salt Lake Center
Wed 03:45:40 PM 43.3033 -108.2244 141° Southeast 463 533 35,000  Level Salt Lake Center
Wed 03:46:42 PM 43.1828 -108.0919 141° Southeast 465 535 35,000  Level Salt Lake Center
Wed 03:47:44 PM 43.0844 -107.9792 140° Southeast 463 533 35,000  Level Salt Lake Center
Wed 03:48:46 PM 42.9828 -107.8694 142° Southeast 468 539 35,000  Level Salt Lake Center
Wed 03:49:48 PM 42.8758 -107.7519 141° Southeast 465 535 35,000  Level Salt Lake Center
Wed 03:50:50 PM 42.7806 -107.6456 141° Southeast 462 532 35,000  Level Salt Lake Center
Wed 03:51:52 PM 42.6681 -107.5225 141° Southeast 465 535 35,000  Level Salt Lake Center
Wed 03:52:54 PM 42.5714 -107.4183 142° Southeast 462 532 35,000 48 Level Salt Lake Center
Wed 03:53:56 PM 42.4575 -107.2972 142° Southeast 464 534 35,100  Climbing Salt Lake Center
Wed 03:54:58 PM 42.3603 -107.1925 141° Southeast 467 537 35,000 -58 Descending Salt Lake Center
Wed 03:55:40 PM 42.2942 -107.1217 142° Southeast 470 541 35,000  Level Denver Center
Wed 03:56:42 PM 42.1778 -107.0014 143° Southeast 470 541 35,000  Level Denver Center
Wed 03:57:44 PM 42.0733 -106.9106 147° Southeast 466 536 35,000  Level Denver Center
Wed 03:58:46 PM 41.9517 -106.8031 147° Southeast 468 539 35,000  Level Denver Center
Wed 03:59:48 PM 41.8489 -106.7114 146° Southeast 465 535 35,000  Level Denver Center
Wed 04:00:51 PM 41.7264 -106.6058 147° Southeast 467 537 35,000  Level Denver Center
Wed 04:01:53 PM 41.6228 -106.5156 147° Southeast 466 536 35,000  Level Denver Center
Wed 04:02:54 PM 41.5206 -106.4256 147° Southeast 464 534 35,000  Level Denver Center
Wed 04:03:57 PM 41.3994 -106.3222 147° Southeast 462 532 35,000  Level Denver Center
Wed 04:04:59 PM 41.2769 -106.2164 147° Southeast 464 534 35,000  Level Denver Center
Wed 04:06:01 PM 41.1769 -106.1292 147° Southeast 461 531 35,000  Level Denver Center
Wed 04:07:03 PM 41.0553 -106.0272 148° Southeast 463 533 35,000 -484 Level Denver Center
Wed 04:08:05 PM 40.9517 -105.9397 147° Southeast 465 535 34,000 -1,790 Descending Denver Center
Wed 04:09:07 PM 40.8486 -105.8383 143° Southeast 463 533 31,300 -2,806 Descending Denver Center
Wed 04:10:09 PM 40.7469 -105.7342 142° Southeast 462 532 28,200 -3,242 Descending Denver Center
Wed 04:11:11 PM 40.6272 -105.6164 143° Southeast 451 519 24,600 -3,194 Descending Denver Center
Wed 04:12:13 PM 40.5225 -105.5419 152° Southeast 432 497 21,600 -2,661 Descending Denver Center
Wed 04:13:15 PM 40.4178 -105.4761 154° Southeast 420 483 19,100 -1,392 Descending Denver Center
Wed 04:14:18 PM 40.3311 -105.3953 145° Southeast 351 404 18,700 -624 Descending Denver Center
Wed 04:15:20 PM 40.2625 -105.2889 130° Southeast 358 412 17,800 -1,065 Descending Denver Center
Wed 04:16:22 PM 40.1994 -105.1906 130° Southeast 353 406 16,500 -1,161 Descending Denver Center
Wed 04:17:24 PM 40.1339 -105.0886 130° Southeast 337 388 15,400 -1,065 Descending Denver Center
Wed 04:18:26 PM 40.0733 -104.9947 130° Southeast 339 390 14,300 -968 Descending Denver Center
Wed 04:19:28 PM 40.0147 -104.9031 130° Southeast 330 380 13,400 -1,016 Descending Denver Center
Wed 04:20:30 PM 39.9494 -104.8139 134° Southeast 322 371 12,200 -1,113 Descending Denver Center
Wed 04:21:32 PM 39.8786 -104.8075 176° South 308 354 11,100 -532 Descending Denver Center
Wed 04:22:34 PM 39.7850 -104.8106 181° South 268 308 11,100 -242 Level Denver Center
Wed 04:23:36 PM 39.7094 -104.8108 180° South 256 295 10,600 -774 Descending Denver Center
Wed 04:24:38 PM 39.6658 -104.7608 139° Southeast 240 276 9,500 -1,016 Descending Denver Center
Wed 04:25:40 PM 39.7181 -104.7144 34° Northeast 208 239 8,500 -1,016 Descending Denver Center
Wed 04:26:42 PM 39.7706 -104.6908 19° North 197 227 7,400 -1,113 Descending Denver Center
Wed 04:27:44 PM 39.8228 -104.6881 North 176 203 6,200 -912 Descending Denver Center
Wed 04:28:47 PM 39.8644 -104.6875 North 156 180 5,500 -667 Descending Denver Center

Login

Don't have an account? Register now (free) for customized features, flight alerts, and more!